This is the latest recevied weather packets stored in our database for station/object IZ1BLA-10. If no packets are shown the sender has not sent any weather packets the latest 10 day(s).
| Time | Temp. | Humidity | Pressure | Rain* | Wind** | Luminosity | Snow |
|---|---|---|---|---|---|---|---|
| 1777450141 | 15.56° C | 80% | 1017.1 hPa | - | - | - | - |
| 1777449541 | 16.11° C | 78% | 1016.8 hPa | - | - | - | - |
| 1777448941 | 16.11° C | 77% | 1016.8 hPa | - | - | - | - |
| 1777448340 | 15.56° C | 80% | 1016.9 hPa | - | - | - | - |
| 1777447740 | 15.56° C | 78% | 1016.8 hPa | - | - | - | - |
| 1777447140 | 15.56° C | 80% | 1016.8 hPa | - | - | - | - |
| 1777446541 | 15.56° C | 74% | 1016.7 hPa | - | - | - | - |
| 1777445941 | 15° C | 72% | 1017 hPa | - | - | - | - |
| 1777445340 | 13.33° C | 78% | 1017.3 hPa | - | - | - | - |
| 1777444741 | 12.22° C | 82% | 1017.6 hPa | - | - | - | - |
| 1777444140 | 11.11° C | 86% | 1017.9 hPa | - | - | - | - |
| 1777443540 | 11.11° C | 89% | 1017.8 hPa | - | - | - | - |
| 1777442941 | 10.56° C | 92% | 1018 hPa | - | - | - | - |
| 1777442340 | 10° C | 93% | 1017.9 hPa | - | - | - | - |
| 1777441741 | 10° C | 95% | 1017.9 hPa | - | - | - | - |
| 1777441141 | 10° C | 95% | 1017.9 hPa | - | - | - | - |
| 1777440541 | 9.44° C | 98% | 1017.9 hPa | - | - | - | - |
| 1777439940 | 10.56° C | 90% | 1017.5 hPa | - | - | - | - |
| 1777439340 | 10° C | 94% | 1017.7 hPa | - | - | - | - |
| 1777438740 | 9.44° C | 97% | 1017.8 hPa | - | - | - | - |
| 1777438140 | 10° C | 97% | 1017.7 hPa | - | - | - | - |
| 1777437540 | 10° C | 96% | 1017.5 hPa | - | - | - | - |
| 1777436940 | 10° C | 94% | 1017.5 hPa | - | - | - | - |
| 1777436340 | 9.44° C | 96% | 1017.5 hPa | - | - | - | - |
| 1777435740 | 10° C | 99% | 1017.5 hPa | - | - | - | - |
* Rain since midnight (hover to see other rain measurements)
** Current wind speed in m/s (hover to see current wind gust speed)